sensor_id;sensor_type;location;lat;lon;timestamp;pressure;altitude;pressure_sealevel;temperature;humidity
60371;BME280;48550;40.588;49.684;2023-04-08T00:00:21;101617.25;;;8.85;100.00
60371;BME280;48550;40.588;49.684;2023-04-08T00:02:47;101611.25;;;8.77;100.00
60371;BME280;48550;40.588;49.684;2023-04-08T00:05:12;101605.22;;;8.68;100.00
60371;BME280;48550;40.588;49.684;2023-04-08T00:07:38;101607.88;;;8.62;100.00
60371;BME280;48550;40.588;49.684;2023-04-08T00:10:04;101601.06;;;8.59;100.00
60371;BME280;48550;40.588;49.684;2023-04-08T00:12:31;101604.22;;;8.69;100.00
60371;BME280;48550;40.588;49.684;2023-04-08T00:14:57;101596.59;;;8.73;100.00
60371;BME280;48550;40.588;49.684;2023-04-08T00:17:23;101589.44;;;8.80;100.00
60371;BME280;48550;40.588;49.684;2023-04-08T00:19:48;101602.44;;;8.89;100.00
60371;BME280;48550;40.588;49.684;2023-04-08T00:22:14;101605.72;;;8.85;100.00
60371;BME280;48550;40.588;49.684;2023-04-08T00:24:40;101592.34;;;8.85;100.00
60371;BME280;48550;40.588;49.684;2023-04-08T00:27:06;101592.34;;;8.85;100.00
60371;BME280;48550;40.588;49.684;2023-04-08T00:29:31;101581.00;;;8.83;100.00
60371;BME280;48550;40.588;49.684;2023-04-08T00:31:57;101585.28;;;8.71;100.00
60371;BME280;48550;40.588;49.684;2023-04-08T00:34:23;101582.94;;;8.54;100.00
60371;BME280;48550;40.588;49.684;2023-04-08T00:36:49;101577.13;;;8.44;100.00
60371;BME280;48550;40.588;49.684;2023-04-08T00:39:14;101568.31;;;8.50;100.00
60371;BME280;48550;40.588;49.684;2023-04-08T00:41:40;101568.06;;;8.45;100.00
60371;BME280;48550;40.588;49.684;2023-04-08T00:44:06;101583.72;;;8.48;100.00
60371;BME280;48550;40.588;49.684;2023-04-08T00:46:38;101577.09;;;8.38;100.00
60371;BME280;48550;40.588;49.684;2023-04-08T00:49:05;101581.72;;;8.29;100.00
60371;BME280;48550;40.588;49.684;2023-04-08T00:51:32;101587.09;;;8.29;100.00
60371;BME280;48550;40.588;49.684;2023-04-08T00:53:58;101579.31;;;8.34;100.00
60371;BME280;48550;40.588;49.684;2023-04-08T00:56:25;101591.06;;;8.33;100.00
60371;BME280;48550;40.588;49.684;2023-04-08T00:58:51;101597.16;;;8.27;100.00
60371;BME280;48550;40.588;49.684;2023-04-08T01:01:37;101594.78;;;8.17;100.00
60371;BME280;48550;40.588;49.684;2023-04-08T01:04:38;101586.03;;;8.23;100.00
60371;BME280;48550;40.588;49.684;2023-04-08T01:07:16;101575.31;;;8.23;100.00
60371;BME280;48550;40.588;49.684;2023-04-08T01:09:53;101566.03;;;8.19;100.00
60371;BME280;48550;40.588;49.684;2023-04-08T01:12:28;101575.44;;;8.15;100.00
60371;BME280;48550;40.588;49.684;2023-04-08T01:15:07;101571.06;;;8.08;100.00
60371;BME280;48550;40.588;49.684;2023-04-08T01:17:36;101574.88;;;8.20;100.00
60371;BME280;48550;40.588;49.684;2023-04-08T01:20:03;101568.78;;;8.33;100.00
60371;BME280;48550;40.588;49.684;2023-04-08T01:22:45;101570.34;;;8.48;100.00
60371;BME280;48550;40.588;49.684;2023-04-08T01:25:22;101558.47;;;8.57;100.00
60371;BME280;48550;40.588;49.684;2023-04-08T01:27:49;101558.28;;;8.66;100.00
60371;BME280;48550;40.588;49.684;2023-04-08T01:30:17;101565.28;;;8.67;100.00
60371;BME280;48550;40.588;49.684;2023-04-08T01:32:45;101568.59;;;8.69;100.00
60371;BME280;48550;40.588;49.684;2023-04-08T01:35:11;101570.00;;;8.65;100.00
60371;BME280;48550;40.588;49.684;2023-04-08T01:37:40;101566.94;;;8.68;100.00
60371;BME280;48550;40.588;49.684;2023-04-08T01:40:07;101562.22;;;8.70;100.00
60371;BME280;48550;40.588;49.684;2023-04-08T01:42:34;101568.78;;;8.67;100.00
60371;BME280;48550;40.588;49.684;2023-04-08T01:45:02;101562.41;;;8.68;100.00
60371;BME280;48550;40.588;49.684;2023-04-08T01:47:30;101566.16;;;8.74;100.00
60371;BME280;48550;40.588;49.684;2023-04-08T01:49:56;101560.16;;;8.72;100.00
60371;BME280;48550;40.588;49.684;2023-04-08T01:52:24;101564.88;;;8.70;100.00
60371;BME280;48550;40.588;49.684;2023-04-08T01:54:51;101563.22;;;8.62;100.00
60371;BME280;48550;40.588;49.684;2023-04-08T01:57:23;101570.38;;;8.55;100.00
60371;BME280;48550;40.588;49.684;2023-04-08T01:59:51;101581.69;;;8.50;100.00
60371;BME280;48550;40.588;49.684;2023-04-08T02:02:21;101568.28;;;8.44;100.00
60371;BME280;48550;40.588;49.684;2023-04-08T02:04:50;101580.66;;;8.23;100.00
60371;BME280;48550;40.588;49.684;2023-04-08T02:07:15;101586.41;;;8.20;100.00
60371;BME280;48550;40.588;49.684;2023-04-08T02:09:42;101587.88;;;8.23;100.00
60371;BME280;48550;40.588;49.684;2023-04-08T02:12:08;101588.09;;;8.28;100.00
60371;BME280;48550;40.588;49.684;2023-04-08T02:14:33;101589.47;;;8.45;100.00
60371;BME280;48550;40.588;49.684;2023-04-08T02:17:12;101585.78;;;8.46;100.00
60371;BME280;48550;40.588;49.684;2023-04-08T02:19:48;101584.31;;;8.44;100.00
60371;BME280;48550;40.588;49.684;2023-04-08T02:22:30;101583.09;;;8.46;100.00
60371;BME280;48550;40.588;49.684;2023-04-08T02:24:58;101586.56;;;8.40;100.00
60371;BME280;48550;40.588;49.684;2023-04-08T02:27:26;101576.50;;;8.42;100.00
60371;BME280;48550;40.588;49.684;2023-04-08T02:29:54;101555.72;;;8.44;100.00
60371;BME280;48550;40.588;49.684;2023-04-08T02:32:22;101555.50;;;8.39;100.00
60371;BME280;48550;40.588;49.684;2023-04-08T02:34:50;101568.13;;;9.00;100.00
60371;BME280;48550;40.588;49.684;2023-04-08T02:37:16;101584.28;;;9.46;100.00
60371;BME280;48550;40.588;49.684;2023-04-08T02:39:42;101575.88;;;9.69;100.00
60371;BME280;48550;40.588;49.684;2023-04-08T02:42:08;101578.75;;;9.67;100.00
60371;BME280;48550;40.588;49.684;2023-04-08T02:44:34;101580.97;;;9.44;100.00
60371;BME280;48550;40.588;49.684;2023-04-08T02:46:59;101579.09;;;9.24;100.00
60371;BME280;48550;40.588;49.684;2023-04-08T02:49:25;101581.97;;;9.23;100.00
60371;BME280;48550;40.588;49.684;2023-04-08T02:51:51;101585.31;;;9.38;100.00
60371;BME280;48550;40.588;49.684;2023-04-08T02:54:16;101584.50;;;9.44;100.00
60371;BME280;48550;40.588;49.684;2023-04-08T02:56:42;101593.16;;;9.46;100.00
60371;BME280;48550;40.588;49.684;2023-04-08T02:59:08;101596.09;;;9.98;100.00
60371;BME280;48550;40.588;49.684;2023-04-08T03:01:33;101601.56;;;10.69;100.00
60371;BME280;48550;40.588;49.684;2023-04-08T03:03:59;101604.94;;;11.02;100.00
60371;BME280;48550;40.588;49.684;2023-04-08T03:06:25;101602.22;;;11.16;100.00
60371;BME280;48550;40.588;49.684;2023-04-08T03:08:51;101603.22;;;11.14;100.00
60371;BME280;48550;40.588;49.684;2023-04-08T03:11:16;101603.44;;;11.20;100.00
60371;BME280;48550;40.588;49.684;2023-04-08T03:13:42;101601.09;;;11.30;100.00
60371;BME280;48550;40.588;49.684;2023-04-08T03:16:08;101612.81;;;11.42;100.00
60371;BME280;48550;40.588;49.684;2023-04-08T03:18:33;101608.56;;;11.59;100.00
60371;BME280;48550;40.588;49.684;2023-04-08T03:20:59;101603.34;;;11.64;100.00
60371;BME280;48550;40.588;49.684;2023-04-08T03:23:27;101605.91;;;11.53;100.00
60371;BME280;48550;40.588;49.684;2023-04-08T03:25:53;101607.47;;;11.67;100.00
60371;BME280;48550;40.588;49.684;2023-04-08T03:28:18;101609.81;;;11.88;100.00
60371;BME280;48550;40.588;49.684;2023-04-08T03:30:44;101615.78;;;11.97;100.00
60371;BME280;48550;40.588;49.684;2023-04-08T03:33:10;101620.81;;;11.87;100.00
60371;BME280;48550;40.588;49.684;2023-04-08T03:35:36;101618.69;;;11.95;100.00
60371;BME280;48550;40.588;49.684;2023-04-08T03:38:03;101622.94;;;11.78;100.00
60371;BME280;48550;40.588;49.684;2023-04-08T03:40:29;101626.25;;;11.73;100.00
60371;BME280;48550;40.588;49.684;2023-04-08T03:42:55;101626.25;;;11.73;100.00
60371;BME280;48550;40.588;49.684;2023-04-08T03:45:20;101643.63;;;11.77;100.00
60371;BME280;48550;40.588;49.684;2023-04-08T03:47:46;101635.06;;;11.87;100.00
60371;BME280;48550;40.588;49.684;2023-04-08T03:50:12;101630.44;;;12.01;100.00
60371;BME280;48550;40.588;49.684;2023-04-08T03:52:37;101630.09;;;11.91;100.00
60371;BME280;48550;40.588;49.684;2023-04-08T03:55:03;101639.94;;;12.03;100.00
60371;BME280;48550;40.588;49.684;2023-04-08T03:57:29;101626.53;;;11.97;100.00
60371;BME280;48550;40.588;49.684;2023-04-08T03:59:55;101625.56;;;11.85;100.00
60371;BME280;48550;40.588;49.684;2023-04-08T04:02:20;101625.13;;;11.88;100.00
60371;BME280;48550;40.588;49.684;2023-04-08T04:04:46;101631.53;;;12.18;100.00
60371;BME280;48550;40.588;49.684;2023-04-08T04:07:12;101635.97;;;12.31;100.00
60371;BME280;48550;40.588;49.684;2023-04-08T04:09:37;101647.56;;;12.31;100.00
60371;BME280;48550;40.588;49.684;2023-04-08T04:12:03;101659.25;;;12.44;100.00
60371;BME280;48550;40.588;49.684;2023-04-08T04:14:29;101652.13;;;12.74;100.00
60371;BME280;48550;40.588;49.684;2023-04-08T04:16:55;101657.72;;;12.91;97.41
60371;BME280;48550;40.588;49.684;2023-04-08T04:19:20;101648.38;;;12.75;90.99
60371;BME280;48550;40.588;49.684;2023-04-08T04:21:46;101633.56;;;12.66;93.04
60371;BME280;48550;40.588;49.684;2023-04-08T04:24:12;101630.69;;;12.61;96.17
60371;BME280;48550;40.588;49.684;2023-04-08T04:26:40;101625.59;;;12.53;97.95
60371;BME280;48550;40.588;49.684;2023-04-08T04:29:06;101625.44;;;12.48;97.25
60371;BME280;48550;40.588;49.684;2023-04-08T04:31:31;101617.44;;;12.59;98.15
60371;BME280;48550;40.588;49.684;2023-04-08T04:33:57;101617.25;;;12.79;98.61
60371;BME280;48550;40.588;49.684;2023-04-08T04:36:23;101628.00;;;12.97;99.52
60371;BME280;48550;40.588;49.684;2023-04-08T04:38:49;101618.19;;;13.03;95.81
60371;BME280;48550;40.588;49.684;2023-04-08T04:41:15;101607.25;;;13.16;95.18
60371;BME280;48550;40.588;49.684;2023-04-08T04:43:41;101604.16;;;13.31;93.22
60371;BME280;48550;40.588;49.684;2023-04-08T04:46:07;101604.28;;;13.36;90.42
60371;BME280;48550;40.588;49.684;2023-04-08T04:48:36;101610.50;;;13.36;91.19
60371;BME280;48550;40.588;49.684;2023-04-08T04:51:02;101617.97;;;13.23;88.44
60371;BME280;48550;40.588;49.684;2023-04-08T04:53:29;101613.91;;;13.32;90.30
60371;BME280;48550;40.588;49.684;2023-04-08T04:55:55;101603.56;;;13.59;87.47
60371;BME280;48550;40.588;49.684;2023-04-08T04:58:20;101596.69;;;13.75;86.93
60371;BME280;48550;40.588;49.684;2023-04-08T05:00:46;101589.00;;;13.48;90.37
60371;BME280;48550;40.588;49.684;2023-04-08T05:03:12;101578.63;;;14.10;88.59
60371;BME280;48550;40.588;49.684;2023-04-08T05:05:38;101578.81;;;15.19;79.29
60371;BME280;48550;40.588;49.684;2023-04-08T05:08:04;101569.56;;;15.94;73.45
60371;BME280;48550;40.588;49.684;2023-04-08T05:10:31;101572.03;;;17.16;63.46
60371;BME280;48550;40.588;49.684;2023-04-08T05:12:57;101577.34;;;17.60;61.08
60371;BME280;48550;40.588;49.684;2023-04-08T05:15:22;101586.44;;;16.95;62.39
60371;BME280;48550;40.588;49.684;2023-04-08T05:17:48;101578.16;;;17.87;59.38
60371;BME280;48550;40.588;49.684;2023-04-08T05:20:14;101571.09;;;18.28;57.19
60371;BME280;48550;40.588;49.684;2023-04-08T05:22:40;101579.25;;;18.81;55.58
60371;BME280;48550;40.588;49.684;2023-04-08T05:25:07;101578.97;;;18.30;59.35
60371;BME280;48550;40.588;49.684;2023-04-08T05:27:32;101590.44;;;17.95;59.81
60371;BME280;48550;40.588;49.684;2023-04-08T05:29:58;101597.66;;;17.57;61.71
60371;BME280;48550;40.588;49.684;2023-04-08T05:32:24;101589.91;;;16.68;66.23
60371;BME280;48550;40.588;49.684;2023-04-08T05:34:50;101580.69;;;17.13;64.45
60371;BME280;48550;40.588;49.684;2023-04-08T05:37:16;101580.44;;;17.41;64.75
60371;BME280;48550;40.588;49.684;2023-04-08T05:39:41;101594.28;;;17.72;61.38
60371;BME280;48550;40.588;49.684;2023-04-08T05:42:07;101581.94;;;17.59;63.24
60371;BME280;48550;40.588;49.684;2023-04-08T05:44:33;101588.50;;;17.90;63.93
60371;BME280;48550;40.588;49.684;2023-04-08T05:46:58;101602.25;;;19.25;56.71
60371;BME280;48550;40.588;49.684;2023-04-08T05:49:24;101612.56;;;17.82;63.27
60371;BME280;48550;40.588;49.684;2023-04-08T05:51:50;101613.31;;;17.72;65.61
60371;BME280;48550;40.588;49.684;2023-04-08T05:54:16;101612.91;;;16.88;67.17
60371;BME280;48550;40.588;49.684;2023-04-08T05:56:41;101608.72;;;17.77;64.38
60371;BME280;48550;40.588;49.684;2023-04-08T05:59:10;101618.66;;;19.51;55.57
60371;BME280;48550;40.588;49.684;2023-04-08T06:01:36;101618.66;;;20.37;50.57
60371;BME280;48550;40.588;49.684;2023-04-08T06:04:02;101612.69;;;20.15;51.99
60371;BME280;48550;40.588;49.684;2023-04-08T06:06:27;101620.59;;;20.21;53.28
60371;BME280;48550;40.588;49.684;2023-04-08T06:08:53;101615.94;;;19.51;54.88
60371;BME280;48550;40.588;49.684;2023-04-08T06:11:19;101611.91;;;18.81;57.40
60371;BME280;48550;40.588;49.684;2023-04-08T06:13:44;101603.50;;;17.98;61.30
60371;BME280;48550;40.588;49.684;2023-04-08T06:16:14;101606.13;;;17.61;65.55
60371;BME280;48550;40.588;49.684;2023-04-08T06:18:44;101599.00;;;16.40;76.10
60371;BME280;48550;40.588;49.684;2023-04-08T06:21:10;101603.28;;;15.86;79.23
60371;BME280;48550;40.588;49.684;2023-04-08T06:23:36;101600.66;;;15.91;76.46
60371;BME280;48550;40.588;49.684;2023-04-08T06:26:01;101609.81;;;17.23;69.78
60371;BME280;48550;40.588;49.684;2023-04-08T06:28:30;101611.41;;;18.47;61.52
60371;BME280;48550;40.588;49.684;2023-04-08T06:30:57;101620.88;;;18.81;57.08
60371;BME280;48550;40.588;49.684;2023-04-08T06:33:23;101612.72;;;18.81;57.55
60371;BME280;48550;40.588;49.684;2023-04-08T06:35:48;101604.94;;;19.15;57.38
60371;BME280;48550;40.588;49.684;2023-04-08T06:38:14;101606.16;;;20.21;53.91
60371;BME280;48550;40.588;49.684;2023-04-08T06:40:40;101604.81;;;19.83;53.54
60371;BME280;48550;40.588;49.684;2023-04-08T06:43:05;101591.84;;;19.02;56.47
60371;BME280;48550;40.588;49.684;2023-04-08T06:45:32;101595.81;;;19.92;55.18
60371;BME280;48550;40.588;49.684;2023-04-08T06:47:58;101587.59;;;19.36;56.29
60371;BME280;48550;40.588;49.684;2023-04-08T06:50:24;101589.53;;;18.63;59.50
60371;BME280;48550;40.588;49.684;2023-04-08T06:52:52;101586.56;;;19.73;55.07
60371;BME280;48550;40.588;49.684;2023-04-08T06:55:17;101581.63;;;19.50;56.42
60371;BME280;48550;40.588;49.684;2023-04-08T06:57:43;101584.06;;;19.46;57.12
60371;BME280;48550;40.588;49.684;2023-04-08T07:00:09;101579.19;;;19.79;57.09
60371;BME280;48550;40.588;49.684;2023-04-08T07:02:35;101579.75;;;19.55;56.34
60371;BME280;48550;40.588;49.684;2023-04-08T07:05:01;101569.97;;;18.66;58.89
60371;BME280;48550;40.588;49.684;2023-04-08T07:07:26;101567.22;;;18.61;60.13
60371;BME280;48550;40.588;49.684;2023-04-08T07:09:52;101575.41;;;18.66;62.67
60371;BME280;48550;40.588;49.684;2023-04-08T07:12:18;101560.84;;;17.66;67.42
60371;BME280;48550;40.588;49.684;2023-04-08T07:14:43;101560.38;;;17.74;68.04
60371;BME280;48550;40.588;49.684;2023-04-08T07:17:09;101562.75;;;18.50;63.06
60371;BME280;48550;40.588;49.684;2023-04-08T07:19:35;101553.84;;;17.70;65.80
60371;BME280;48550;40.588;49.684;2023-04-08T07:22:01;101543.00;;;17.43;70.58
60371;BME280;48550;40.588;49.684;2023-04-08T07:24:27;101544.31;;;18.57;63.12
60371;BME280;48550;40.588;49.684;2023-04-08T07:26:53;101539.53;;;18.75;61.58
60371;BME280;48550;40.588;49.684;2023-04-08T07:29:21;101535.25;;;18.94;59.50
60371;BME280;48550;40.588;49.684;2023-04-08T07:31:46;101523.81;;;17.55;68.25
60371;BME280;48550;40.588;49.684;2023-04-08T07:34:12;101509.75;;;15.95;82.44
60371;BME280;48550;40.588;49.684;2023-04-08T07:36:38;101510.81;;;15.44;88.22
60371;BME280;48550;40.588;49.684;2023-04-08T07:39:05;101504.41;;;14.59;100.00
60371;BME280;48550;40.588;49.684;2023-04-08T07:41:30;101493.22;;;13.46;100.00
60371;BME280;48550;40.588;49.684;2023-04-08T07:43:56;101493.44;;;14.14;100.00
60371;BME280;48550;40.588;49.684;2023-04-08T07:46:22;101493.88;;;14.46;100.00
60371;BME280;48550;40.588;49.684;2023-04-08T07:48:47;101497.34;;;14.58;100.00
60371;BME280;48550;40.588;49.684;2023-04-08T07:51:13;101495.75;;;14.34;100.00
60371;BME280;48550;40.588;49.684;2023-04-08T07:53:39;101486.75;;;14.69;100.00
60371;BME280;48550;40.588;49.684;2023-04-08T07:56:12;101482.06;;;14.64;100.00
60371;BME280;48550;40.588;49.684;2023-04-08T07:58:38;101470.97;;;14.49;100.00
60371;BME280;48550;40.588;49.684;2023-04-08T08:01:14;101474.97;;;14.46;100.00
60371;BME280;48550;40.588;49.684;2023-04-08T08:03:40;101471.00;;;14.25;100.00
60371;BME280;48550;40.588;49.684;2023-04-08T08:06:06;101475.22;;;14.33;100.00
60371;BME280;48550;40.588;49.684;2023-04-08T08:08:31;101473.13;;;14.23;100.00
60371;BME280;48550;40.588;49.684;2023-04-08T08:10:59;101484.47;;;14.37;100.00
60371;BME280;48550;40.588;49.684;2023-04-08T08:13:25;101470.28;;;14.30;100.00
60371;BME280;48550;40.588;49.684;2023-04-08T08:15:51;101469.03;;;14.21;100.00
60371;BME280;48550;40.588;49.684;2023-04-08T08:18:18;101466.31;;;14.21;100.00
60371;BME280;48550;40.588;49.684;2023-04-08T08:20:43;101454.16;;;13.83;100.00
60371;BME280;48550;40.588;49.684;2023-04-08T08:23:09;101456.91;;;14.12;100.00
60371;BME280;48550;40.588;49.684;2023-04-08T08:25:35;101454.47;;;14.10;100.00
60371;BME280;48550;40.588;49.684;2023-04-08T08:28:01;101460.69;;;13.99;100.00
60371;BME280;48550;40.588;49.684;2023-04-08T08:30:27;101451.53;;;14.12;100.00
60371;BME280;48550;40.588;49.684;2023-04-08T08:32:53;101449.59;;;13.60;100.00
60371;BME280;48550;40.588;49.684;2023-04-08T08:35:18;101460.72;;;13.52;100.00
60371;BME280;48550;40.588;49.684;2023-04-08T08:37:44;101462.53;;;13.17;100.00
60371;BME280;48550;40.588;49.684;2023-04-08T08:40:10;101452.94;;;12.79;100.00
60371;BME280;48550;40.588;49.684;2023-04-08T08:42:37;101448.38;;;12.61;100.00
60371;BME280;48550;40.588;49.684;2023-04-08T08:45:04;101450.13;;;12.86;100.00
60371;BME280;48550;40.588;49.684;2023-04-08T08:47:31;101444.88;;;12.91;100.00
60371;BME280;48550;40.588;49.684;2023-04-08T08:49:57;101456.28;;;13.16;100.00
60371;BME280;48550;40.588;49.684;2023-04-08T08:52:23;101453.06;;;12.84;100.00
60371;BME280;48550;40.588;49.684;2023-04-08T08:54:56;101447.34;;;12.62;100.00
60371;BME280;48550;40.588;49.684;2023-04-08T08:57:22;101446.63;;;12.37;100.00
60371;BME280;48550;40.588;49.684;2023-04-08T08:59:48;101451.97;;;12.25;100.00
60371;BME280;48550;40.588;49.684;2023-04-08T09:02:30;101450.84;;;12.15;100.00
60371;BME280;48550;40.588;49.684;2023-04-08T09:04:59;101455.31;;;12.21;100.00
60371;BME280;48550;40.588;49.684;2023-04-08T09:07:26;101456.00;;;12.16;100.00
60371;BME280;48550;40.588;49.684;2023-04-08T09:09:54;101448.22;;;12.26;100.00
60371;BME280;48550;40.588;49.684;2023-04-08T09:12:20;101442.56;;;12.16;100.00
60371;BME280;48550;40.588;49.684;2023-04-08T09:14:46;101452.78;;;12.26;100.00
60371;BME280;48550;40.588;49.684;2023-04-08T09:17:13;101445.28;;;12.46;100.00
60371;BME280;48550;40.588;49.684;2023-04-08T09:19:39;101453.22;;;12.23;100.00
60371;BME280;48550;40.588;49.684;2023-04-08T09:22:09;101440.69;;;11.98;100.00
60371;BME280;48550;40.588;49.684;2023-04-08T09:24:35;101441.13;;;11.95;100.00
60371;BME280;48550;40.588;49.684;2023-04-08T09:27:02;101446.41;;;11.84;100.00
60371;BME280;48550;40.588;49.684;2023-04-08T09:29:28;101449.25;;;11.89;100.00
60371;BME280;48550;40.588;49.684;2023-04-08T09:31:58;101441.13;;;12.14;100.00
60371;BME280;48550;40.588;49.684;2023-04-08T09:34:25;101434.47;;;12.16;100.00
60371;BME280;48550;40.588;49.684;2023-04-08T09:36:52;101429.22;;;12.39;100.00
60371;BME280;48550;40.588;49.684;2023-04-08T09:39:18;101420.56;;;12.19;100.00
60371;BME280;48550;40.588;49.684;2023-04-08T09:41:48;101422.53;;;12.12;100.00
60371;BME280;48550;40.588;49.684;2023-04-08T09:44:15;101422.38;;;12.07;100.00
60371;BME280;48550;40.588;49.684;2023-04-08T09:52:06;101435.06;;;12.18;100.00
60371;BME280;48550;40.588;49.684;2023-04-08T09:54:47;101424.91;;;12.20;100.00
60371;BME280;48550;40.588;49.684;2023-04-08T09:57:21;101424.31;;;12.18;100.00
60371;BME280;48550;40.588;49.684;2023-04-08T09:59:59;101426.19;;;11.99;100.00
60371;BME280;48550;40.588;49.684;2023-04-08T10:02:37;101414.75;;;12.04;100.00
60371;BME280;48550;40.588;49.684;2023-04-08T10:05:06;101413.84;;;12.10;100.00
60371;BME280;48550;40.588;49.684;2023-04-08T10:07:34;101417.59;;;11.91;100.00
60371;BME280;48550;40.588;49.684;2023-04-08T10:10:00;101404.75;;;11.93;100.00
60371;BME280;48550;40.588;49.684;2023-04-08T10:12:27;101414.09;;;11.90;100.00
60371;BME280;48550;40.588;49.684;2023-04-08T10:15:27;101404.28;;;11.77;100.00
60371;BME280;48550;40.588;49.684;2023-04-08T10:20:44;101392.34;;;11.92;100.00
60371;BME280;48550;40.588;49.684;2023-04-08T10:23:17;101369.75;;;12.11;100.00
60371;BME280;48550;40.588;49.684;2023-04-08T10:25:44;101364.78;;;11.96;100.00
60371;BME280;48550;40.588;49.684;2023-04-08T10:30:40;101375.59;;;11.90;100.00
60371;BME280;48550;40.588;49.684;2023-04-08T10:35:40;101364.78;;;11.96;100.00
60371;BME280;48550;40.588;49.684;2023-04-08T10:38:13;101362.66;;;11.98;100.00
60371;BME280;48550;40.588;49.684;2023-04-08T10:40:40;101367.31;;;11.91;100.00
60371;BME280;48550;40.588;49.684;2023-04-08T10:43:07;101366.00;;;12.42;100.00
60371;BME280;48550;40.588;49.684;2023-04-08T10:45:34;101366.50;;;12.51;100.00
60371;BME280;48550;40.588;49.684;2023-04-08T10:48:13;101356.91;;;12.85;100.00
60371;BME280;48550;40.588;49.684;2023-04-08T10:50:39;101366.53;;;13.04;100.00
60371;BME280;48550;40.588;49.684;2023-04-08T10:53:05;101369.66;;;12.78;100.00
60371;BME280;48550;40.588;49.684;2023-04-08T10:55:32;101362.38;;;12.66;100.00
60371;BME280;48550;40.588;49.684;2023-04-08T10:58:07;101371.16;;;12.73;100.00
60371;BME280;48550;40.588;49.684;2023-04-08T11:00:37;101362.59;;;12.65;100.00
60371;BME280;48550;40.588;49.684;2023-04-08T11:03:06;101348.56;;;12.75;100.00
60371;BME280;48550;40.588;49.684;2023-04-08T11:05:32;101346.88;;;12.62;100.00
60371;BME280;48550;40.588;49.684;2023-04-08T11:07:59;101349.06;;;12.53;100.00
60371;BME280;48550;40.588;49.684;2023-04-08T11:10:26;101358.31;;;12.46;100.00
60371;BME280;48550;40.588;49.684;2023-04-08T11:12:56;101360.66;;;12.54;100.00
60371;BME280;48550;40.588;49.684;2023-04-08T11:15:25;101362.59;;;12.65;100.00
60371;BME280;48550;40.588;49.684;2023-04-08T11:17:53;101367.53;;;12.68;100.00
60371;BME280;48550;40.588;49.684;2023-04-08T11:20:19;101372.38;;;12.89;100.00
60371;BME280;48550;40.588;49.684;2023-04-08T11:22:46;101382.28;;;12.77;100.00
60371;BME280;48550;40.588;49.684;2023-04-08T11:25:12;101394.56;;;12.43;100.00
60371;BME280;48550;40.588;49.684;2023-04-08T11:27:39;101383.75;;;12.31;100.00
60371;BME280;48550;40.588;49.684;2023-04-08T11:30:06;101385.28;;;12.27;100.00
60371;BME280;48550;40.588;49.684;2023-04-08T11:32:33;101391.03;;;12.31;100.00
60371;BME280;48550;40.588;49.684;2023-04-08T11:35:00;101396.72;;;12.23;100.00
60371;BME280;48550;40.588;49.684;2023-04-08T11:37:36;101396.22;;;11.96;100.00
60371;BME280;48550;40.588;49.684;2023-04-08T11:40:01;101409.53;;;11.91;100.00
60371;BME280;48550;40.588;49.684;2023-04-08T11:42:31;101413.81;;;11.73;100.00
60371;BME280;48550;40.588;49.684;2023-04-08T11:44:57;101441.50;;;11.99;100.00
60371;BME280;48550;40.588;49.684;2023-04-08T11:47:31;101461.38;;;12.16;100.00
60371;BME280;48550;40.588;49.684;2023-04-08T11:49:58;101477.75;;;12.15;100.00
60371;BME280;48550;40.588;49.684;2023-04-08T11:52:43;101480.81;;;12.18;100.00
60371;BME280;48550;40.588;49.684;2023-04-08T11:55:10;101465.34;;;12.32;100.00
60371;BME280;48550;40.588;49.684;2023-04-08T11:57:36;101476.34;;;12.12;100.00
60371;BME280;48550;40.588;49.684;2023-04-08T12:00:04;101481.28;;;11.97;100.00
60371;BME280;48550;40.588;49.684;2023-04-08T12:02:30;101482.47;;;12.01;100.00
60371;BME280;48550;40.588;49.684;2023-04-08T12:04:56;101487.25;;;11.99;100.00
60371;BME280;48550;40.588;49.684;2023-04-08T12:07:21;101483.88;;;12.03;100.00
60371;BME280;48550;40.588;49.684;2023-04-08T12:09:47;101483.22;;;12.08;100.00
60371;BME280;48550;40.588;49.684;2023-04-08T12:12:13;101473.03;;;11.92;100.00
60371;BME280;48550;40.588;49.684;2023-04-08T12:14:38;101459.16;;;11.95;100.00
60371;BME280;48550;40.588;49.684;2023-04-08T12:17:04;101456.97;;;12.03;100.00
60371;BME280;48550;40.588;49.684;2023-04-08T12:19:30;101478.44;;;12.10;100.00
60371;BME280;48550;40.588;49.684;2023-04-08T12:21:56;101478.06;;;12.06;100.00
60371;BME280;48550;40.588;49.684;2023-04-08T12:24:21;101477.38;;;12.11;100.00
60371;BME280;48550;40.588;49.684;2023-04-08T12:26:47;101471.94;;;12.18;100.00
60371;BME280;48550;40.588;49.684;2023-04-08T12:29:13;101450.47;;;12.29;100.00
60371;BME280;48550;40.588;49.684;2023-04-08T12:31:38;101429.06;;;12.34;100.00
60371;BME280;48550;40.588;49.684;2023-04-08T12:34:04;101427.44;;;12.33;100.00
60371;BME280;48550;40.588;49.684;2023-04-08T12:36:31;101432.69;;;12.10;100.00
60371;BME280;48550;40.588;49.684;2023-04-08T12:38:57;101430.31;;;12.02;100.00
60371;BME280;48550;40.588;49.684;2023-04-08T12:41:23;101423.00;;;12.39;100.00
60371;BME280;48550;40.588;49.684;2023-04-08T12:43:48;101403.47;;;12.14;100.00
60371;BME280;48550;40.588;49.684;2023-04-08T12:46:14;101417.22;;;12.05;100.00
60371;BME280;48550;40.588;49.684;2023-04-08T12:48:40;101439.66;;;11.99;100.00